Time;durP1;ratioP1;P1;durP2;ratioP2;P2;SDS_P1;SDS_P2;PMS_P1;PMS_P2;Temp;Humidity;BMP_temperature;BMP_pressure;BME280_temperature;BME280_humidity;BME280_pressure;Samples;Min_cycle;Max_cycle;Signal;HPM_P1;HPM_P2
2022/12/30 00:02:00;;;;;;;0.90;0.90;;;;;;;-2.26;98.95;98997.13;4965902;28;20141;-93
2022/12/30 00:04:28;;;;;;;0.85;0.85;;;;;;;-2.28;99.10;98988.56;4963231;28;20058;-91
2022/12/30 00:06:55;;;;;;;1.08;1.08;;;;;;;-2.21;99.09;98986.06;4979217;28;20046;-92
2022/12/30 00:09:24;;;;;;;0.90;0.90;;;;;;;-2.22;99.23;98977.31;4990179;28;20137;-92
2022/12/30 00:11:51;;;;;;;0.90;0.90;;;;;;;-2.17;99.31;98971.53;4962779;28;20051;-92
2022/12/30 00:34:33;;;;;;;0.75;0.75;;;;;;;-2.20;99.08;98972.69;4978179;28;20457;-90
2022/12/30 00:37:02;;;;;;;1.00;1.00;;;;;;;-2.15;99.20;98952.84;4994281;28;20092;-93
2022/12/30 00:39:29;;;;;;;0.98;0.98;;;;;;;-2.12;99.13;98957.84;4995461;28;20046;-93
2022/12/30 00:44:43;;;;;;;0.70;0.70;;;;;;;-2.09;99.05;98963.59;4978165;28;20059;-92
2022/12/30 00:47:12;;;;;;;0.70;0.70;;;;;;;-2.06;99.13;98965.91;4926521;28;20046;-91
2022/12/30 00:57:57;;;;;;;0.65;0.65;;;;;;;-2.11;99.43;98951.53;4960187;28;20505;-91
2022/12/30 01:00:26;;;;;;;0.90;0.90;;;;;;;-2.10;99.45;98954.03;4916172;28;20053;-93
2022/12/30 01:02:53;;;;;;;0.70;0.70;;;;;;;-2.12;99.24;98952.53;4982857;28;20513;-92
2022/12/30 01:05:21;;;;;;;0.70;0.70;;;;;;;-2.15;99.48;98950.19;4991452;28;20045;-93
2022/12/30 01:07:48;;;;;;;1.10;1.10;;;;;;;-2.12;99.65;98960.47;4983545;28;20031;-91
2022/12/30 01:10:15;;;;;;;0.80;0.80;;;;;;;-2.13;99.90;98953.50;4973170;28;20034;-92
2022/12/30 01:12:43;;;;;;;0.90;0.90;;;;;;;-2.16;99.96;98956.50;4982612;28;20114;-91
2022/12/30 01:15:10;;;;;;;0.80;0.80;;;;;;;-2.11;100.00;98956.84;4949421;28;20419;-91
2022/12/30 01:17:38;;;;;;;1.00;1.00;;;;;;;-2.08;100.00;98957.31;4966841;28;20624;-93
2022/12/30 01:20:06;;;;;;;0.70;0.70;;;;;;;-2.06;99.97;98963.28;4987983;28;20059;-92
2022/12/30 01:22:33;;;;;;;0.80;0.80;;;;;;;-2.14;99.93;98957.16;4966122;28;20046;-91
2022/12/30 01:25:00;;;;;;;0.80;0.80;;;;;;;-2.15;100.00;98947.56;4982284;28;20090;-94
2022/12/30 01:27:30;;;;;;;0.90;0.90;;;;;;;-2.09;100.00;98955.66;4985887;28;20050;-93
2022/12/30 01:30:00;;;;;;;0.77;0.77;;;;;;;-2.12;100.00;98958.66;4950134;28;20054;-92
2022/12/30 01:32:31;;;;;;;0.77;0.77;;;;;;;-2.14;100.00;98957.97;4948868;28;20050;-92
2022/12/30 01:34:58;;;;;;;1.00;1.00;;;;;;;-2.14;100.00;98957.16;4982127;28;20145;-91
2022/12/30 01:37:26;;;;;;;0.80;0.80;;;;;;;-2.13;100.00;98953.50;4932559;28;20146;-92
2022/12/30 01:39:53;;;;;;;0.70;0.70;;;;;;;-2.09;100.00;98947.75;4978335;28;20081;-91
2022/12/30 01:42:28;;;;;;;0.80;0.80;;;;;;;-2.12;100.00;98942.78;4970043;28;20055;-92
2022/12/30 01:45:15;;;;;;;0.90;0.90;;;;;;;-2.12;100.00;98941.97;4950086;29;20047;-91
2022/12/30 01:47:46;;;;;;;0.95;0.95;;;;;;;-2.13;100.00;98932.38;4950040;29;20059;-92
2022/12/30 01:50:22;;;;;;;0.80;0.80;;;;;;;-2.13;100.00;98927.91;4950335;29;20046;-91
2022/12/30 01:53:05;;;;;;;0.90;0.90;;;;;;;-2.16;100.00;98912.38;4950359;29;20051;-92
2022/12/30 01:55:41;;;;;;;0.70;0.70;;;;;;;-2.07;100.00;98927.25;4919097;29;20051;-91
2022/12/30 01:58:11;;;;;;;0.80;0.80;;;;;;;-2.02;100.00;98921.47;4932750;29;20506;-91
2022/12/30 02:00:39;;;;;;;0.98;0.98;;;;;;;-2.05;100.00;98913.84;4943807;29;20506;-91
2022/12/30 02:03:07;;;;;;;0.85;0.85;;;;;;;-2.00;100.00;98919.47;4943172;29;20114;-92
2022/12/30 02:05:36;;;;;;;0.82;0.82;;;;;;;-2.02;100.00;98918.81;4933329;28;20047;-91
2022/12/30 02:08:09;;;;;;;0.90;0.90;;;;;;;-2.07;100.00;98919.31;4976513;28;20050;-91
2022/12/30 02:10:39;;;;;;;0.70;0.70;;;;;;;-2.08;100.00;98924.75;4976052;28;20047;-93
2022/12/30 02:13:13;;;;;;;0.60;0.60;;;;;;;-2.05;100.00;98922.63;4955304;28;20058;-93
2022/12/30 02:16:23;;;;;;;0.80;0.80;;;;;;;-2.02;100.00;98930.22;4936102;28;20095;-92
2022/12/30 02:19:35;;;;;;;0.82;0.82;;;;;;;-1.97;100.00;98927.91;4963793;28;20073;-92
2022/12/30 02:22:03;;;;;;;0.73;0.73;;;;;;;-2.02;100.00;98916.19;4917055;29;20060;-92
2022/12/30 02:24:54;;;;;;;1.00;1.00;;;;;;;-2.03;100.00;98910.03;4905358;29;20578;-92
2022/12/30 02:27:40;;;;;;;0.85;0.85;;;;;;;-2.05;100.00;98913.84;4917822;29;20067;-92
2022/12/30 02:30:25;;;;;;;0.80;0.80;;;;;;;-2.05;100.00;98913.84;4920196;29;20131;-90
2022/12/30 02:33:17;;;;;;;0.70;0.70;;;;;;;-2.04;100.00;98897.81;4920195;29;20056;-92
2022/12/30 02:35:53;;;;;;;0.80;0.80;;;;;;;-2.10;100.00;98901.16;4919529;29;20107;-92
2022/12/30 02:38:57;;;;;;;0.90;0.90;;;;;;;-2.10;100.00;98905.59;4902673;29;20154;-92
2022/12/30 02:44:38;;;;;;;0.80;0.80;;;;;;;-2.15;100.00;98899.97;4863933;29;20045;-93
2022/12/30 02:47:38;;;;;;;1.00;1.00;;;;;;;-2.15;100.00;98908.75;4871163;29;20040;-91
2022/12/30 02:53:01;;;;;;;0.57;0.57;;;;;;;-2.06;100.00;98907.72;4852102;29;20067;-91
2022/12/30 02:55:29;;;;;;;0.70;0.70;;;;;;;-2.14;100.00;98894.53;4861106;29;20100;-93
2022/12/30 02:58:00;;;;;;;0.93;0.93;;;;;;;-2.27;100.00;98902.94;4862178;29;20098;-92
2022/12/30 03:06:55;;;;;;;0.93;0.93;;;;;;;-2.07;100.00;98906.09;4867997;29;20049;-94
2022/12/30 03:09:37;;;;;;;0.75;0.75;;;;;;;-2.09;100.00;98909.91;4863858;29;20057;-92
2022/12/30 03:12:23;;;;;;;0.80;0.80;;;;;;;-2.09;100.00;98904.59;4892375;29;20080;-92
2022/12/30 03:15:04;;;;;;;0.82;0.82;;;;;;;-2.06;100.00;98898.97;4890479;29;20056;-92
2022/12/30 03:17:33;;;;;;;0.70;0.70;;;;;;;-2.05;100.00;98897.97;4912204;28;20055;-91
2022/12/30 03:20:03;;;;;;;0.90;0.90;;;;;;;-2.05;100.00;98895.34;4974126;28;20118;-92
2022/12/30 03:28:19;;;;;;;0.80;0.80;;;;;;;-2.04;100.00;98894.34;4961966;28;20827;-91
2022/12/30 03:31:00;;;;;;;0.90;0.90;;;;;;;-2.01;100.00;98901.94;4944060;28;20051;-88
2022/12/30 03:33:28;;;;;;;0.80;0.80;;;;;;;-1.94;100.00;98904.78;4966407;28;20142;-90
2022/12/30 03:36:01;;;;;;;0.80;0.80;;;;;;;-1.96;100.00;98899.63;4961625;28;20073;-90
2022/12/30 03:38:33;;;;;;;0.60;0.60;;;;;;;-1.94;100.00;98904.78;4949665;28;20051;-90
2022/12/30 03:41:02;;;;;;;0.70;0.70;;;;;;;-1.94;100.00;98907.41;4954181;29;20063;-89
2022/12/30 03:43:29;;;;;;;0.80;0.80;;;;;;;-2.08;100.00;98890.38;4941466;29;20053;-93
2022/12/30 03:46:06;;;;;;;0.85;0.85;;;;;;;-2.01;100.00;98888.72;4938683;28;20057;-93
2022/12/30 03:48:47;;;;;;;0.90;0.90;;;;;;;-1.99;100.00;98898.16;4614393;28;10000466;-89
2022/12/30 03:51:28;;;;;;;1.00;1.00;;;;;;;-1.94;100.00;98892.38;4936094;28;20711;-88
2022/12/30 03:53:55;;;;;;;0.95;0.95;;;;;;;-2.01;100.00;98888.72;4966054;28;20050;-92
2022/12/30 03:56:23;;;;;;;0.80;0.80;;;;;;;-1.96;100.00;98891.69;4954594;28;20051;-89
2022/12/30 03:58:50;;;;;;;0.85;0.85;;;;;;;-1.99;100.00;98886.75;4915538;28;20141;-87
2022/12/30 04:01:17;;;;;;;0.73;0.73;;;;;;;-1.96;100.00;98891.69;4940004;29;20070;-91
2022/12/30 04:03:45;;;;;;;0.85;0.85;;;;;;;-1.98;100.00;98883.09;4947854;28;20043;-91
2022/12/30 04:06:14;;;;;;;0.90;0.90;;;;;;;-2.00;100.00;98885.09;4930100;29;20055;-89
2022/12/30 04:08:41;;;;;;;0.90;0.90;;;;;;;-1.95;100.00;98888.03;4967849;28;20081;-87
2022/12/30 04:11:08;;;;;;;0.75;0.75;;;;;;;-1.97;100.00;98893.53;4955178;28;20043;-88
2022/12/30 04:13:36;;;;;;;0.90;0.90;;;;;;;-1.94;100.00;98879.13;4961318;28;20059;-89
2022/12/30 04:16:03;;;;;;;0.77;0.77;;;;;;;-1.94;100.00;98875.69;4954862;28;20047;-91
2022/12/30 04:18:30;;;;;;;0.85;0.85;;;;;;;-1.89;100.00;98874.16;4960741;28;20082;-91
2022/12/30 04:20:58;;;;;;;0.90;0.90;;;;;;;-1.85;100.00;98879.94;4943650;28;20098;-90
2022/12/30 04:23:25;;;;;;;0.80;0.80;;;;;;;-1.82;100.00;98872.50;4954707;29;20130;-93
2022/12/30 04:25:52;;;;;;;0.80;0.80;;;;;;;-1.79;100.00;98877.47;4949322;29;20047;-92
2022/12/30 04:28:19;;;;;;;0.60;0.60;;;;;;;-1.80;100.00;98870.53;4979799;28;20513;-89
2022/12/30 04:30:49;;;;;;;0.90;0.90;;;;;;;-1.83;100.00;98865.56;4979934;28;20046;-87
2022/12/30 04:33:16;;;;;;;0.88;0.88;;;;;;;-1.79;100.00;98860.75;4967936;28;20051;-87
2022/12/30 04:35:43;;;;;;;0.93;0.93;;;;;;;-1.78;100.00;98850.00;4936380;28;20145;-93
2022/12/30 04:38:10;;;;;;;0.77;0.77;;;;;;;-1.77;100.00;98843.72;4964495;29;20106;-95
2022/12/30 04:40:37;;;;;;;0.80;0.80;;;;;;;-1.80;100.00;98840.56;4961483;29;20138;-92
2022/12/30 04:43:07;;;;;;;0.90;0.90;;;;;;;-1.82;100.00;98845.25;4945644;28;20541;-91
2022/12/30 04:45:39;;;;;;;1.00;1.00;;;;;;;-1.78;100.00;98850.00;4969120;28;20062;-96
2022/12/30 04:48:18;;;;;;;0.63;0.63;;;;;;;-1.76;100.00;98845.38;4956130;28;20106;-93
2022/12/30 04:50:45;;;;;;;0.70;0.70;;;;;;;-1.79;100.00;98843.06;4938315;29;20139;-90
2022/12/30 04:53:12;;;;;;;0.90;0.90;;;;;;;-1.79;100.00;98843.06;4939600;28;20134;-91
2022/12/30 04:55:39;;;;;;;0.88;0.88;;;;;;;-1.76;100.00;98844.53;4962523;28;20051;-91
2022/12/30 04:58:09;;;;;;;0.80;0.80;;;;;;;-1.73;100.00;98848.69;4942815;29;20061;-91
2022/12/30 05:00:40;;;;;;;0.90;0.90;;;;;;;-1.73;100.00;98848.69;4953780;29;20055;-92
2022/12/30 05:03:30;;;;;;;0.70;0.70;;;;;;;-1.82;100.00;98851.34;4951989;29;20027;-92
2022/12/30 05:06:00;;;;;;;0.82;0.82;;;;;;;-1.81;100.00;98855.63;4944469;29;20051;-92
2022/12/30 05:08:42;;;;;;;0.82;0.82;;;;;;;-1.91;100.00;98827.72;4926073;28;20150;-93
2022/12/30 05:11:23;;;;;;;0.82;0.82;;;;;;;-1.92;100.00;98832.19;4954866;29;20031;-91
2022/12/30 05:13:55;;;;;;;0.90;0.90;;;;;;;-1.84;100.00;98842.75;4967837;29;20039;-94
2022/12/30 05:16:36;;;;;;;0.90;0.90;;;;;;;-1.90;100.00;98832.84;4962280;28;20057;-91
2022/12/30 05:19:04;;;;;;;0.85;0.85;;;;;;;-1.86;100.00;98844.72;4913073;28;20066;-90
2022/12/30 05:21:31;;;;;;;0.75;0.75;;;;;;;-1.85;100.00;98829.69;4959405;29;20422;-93
2022/12/30 05:26:46;;;;;;;0.90;0.90;;;;;;;-1.85;100.00;98835.81;4981939;28;20142;-89
2022/12/30 05:29:13;;;;;;;0.90;0.90;;;;;;;-1.90;100.00;98832.00;4946284;28;20047;-87
2022/12/30 05:31:42;;;;;;;0.82;0.82;;;;;;;-1.81;100.00;98850.34;4926836;28;20052;-90
2022/12/30 05:34:10;;;;;;;1.00;1.00;;;;;;;-1.87;100.00;98848.38;4982459;28;20050;-91
2022/12/30 05:36:37;;;;;;;0.95;0.95;;;;;;;-1.93;100.00;98842.94;4963279;28;20093;-91
2022/12/30 05:39:07;;;;;;;0.70;0.70;;;;;;;-1.96;100.00;98849.38;4961876;28;20536;-88
2022/12/30 05:41:34;;;;;;;0.80;0.80;;;;;;;-1.84;100.00;98863.09;4964375;28;20483;-90
2022/12/30 05:44:01;;;;;;;0.80;0.80;;;;;;;-1.84;100.00;98845.41;4962722;28;20051;-88
2022/12/30 05:46:29;;;;;;;0.90;0.90;;;;;;;-1.84;100.00;98853.31;4977399;28;20046;-90
2022/12/30 05:48:57;;;;;;;0.90;0.90;;;;;;;-1.83;100.00;98854.97;4946056;28;20042;-90
2022/12/30 05:51:26;;;;;;;0.90;0.90;;;;;;;-1.89;100.00;98850.38;4962537;28;20086;-91
2022/12/30 05:54:02;;;;;;;1.00;1.00;;;;;;;-1.86;100.00;98852.66;4950473;28;20046;-91
2022/12/30 05:56:30;;;;;;;0.80;0.80;;;;;;;-1.86;100.00;98849.19;4946954;28;20082;-90
2022/12/30 05:58:57;;;;;;;0.88;0.88;;;;;;;-1.81;100.00;98858.28;4976217;28;20057;-91
2022/12/30 06:01:25;;;;;;;0.77;0.77;;;;;;;-1.81;100.00;98847.69;4975794;28;20047;-90
2022/12/30 06:03:56;;;;;;;0.95;0.95;;;;;;;-1.78;100.00;98851.81;4971158;28;20510;-90
2022/12/30 06:06:26;;;;;;;0.80;0.80;;;;;;;-1.84;100.00;98841.94;4942847;28;20035;-91
2022/12/30 06:08:53;;;;;;;0.73;0.73;;;;;;;-1.83;100.00;98843.56;4979785;28;20074;-92
2022/12/30 06:11:20;;;;;;;0.70;0.70;;;;;;;-1.76;100.00;98844.53;4967616;28;20082;-91
2022/12/30 06:13:48;;;;;;;0.90;0.90;;;;;;;-1.74;100.00;98847.84;4953865;28;20043;-90
2022/12/30 06:16:15;;;;;;;0.80;0.80;;;;;;;-1.78;100.00;98842.06;4989171;28;20165;-91
2022/12/30 06:18:43;;;;;;;0.90;0.90;;;;;;;-1.80;100.00;98846.72;4939511;28;20082;-91
2022/12/30 06:21:24;;;;;;;0.90;0.90;;;;;;;-1.80;100.00;98846.72;4969364;28;20126;-90
2022/12/30 06:24:01;;;;;;;0.90;0.90;;;;;;;-1.85;100.00;98846.41;4964443;28;20506;-91
2022/12/30 06:26:29;;;;;;;0.60;0.60;;;;;;;-1.81;100.00;98839.75;4984619;28;20061;-90
2022/12/30 06:28:56;;;;;;;1.00;1.00;;;;;;;-1.72;100.00;98831.78;4964725;28;20074;-91
2022/12/30 06:31:23;;;;;;;0.85;0.85;;;;;;;-1.69;100.00;98839.41;4977841;28;20050;-91
2022/12/30 06:34:02;;;;;;;0.90;0.90;;;;;;;-1.69;100.00;98828.81;4982268;28;20050;-90
2022/12/30 06:36:29;;;;;;;0.80;0.80;;;;;;;-1.65;100.00;98846.00;4947713;28;20083;-92
2022/12/30 06:38:58;;;;;;;0.80;0.80;;;;;;;-1.64;100.00;98827.31;4981571;28;20066;-92
2022/12/30 06:41:25;;;;;;;0.70;0.70;;;;;;;-1.56;100.00;98834.41;4961446;28;20137;-92
2022/12/30 06:43:52;;;;;;;0.70;0.70;;;;;;;-1.58;100.00;98825.81;4964070;28;20038;-92
2022/12/30 06:46:20;;;;;;;0.75;0.75;;;;;;;-1.53;100.00;98826.94;4979750;28;20093;-91
2022/12/30 06:48:49;;;;;;;0.90;0.90;;;;;;;-1.54;100.00;98827.13;4965659;28;20524;-92
2022/12/30 06:51:31;;;;;;;1.00;1.00;;;;;;;-1.61;100.00;98818.22;4926714;28;20399;-92
2022/12/30 06:54:07;;;;;;;0.70;0.70;;;;;;;-1.59;100.00;98838.22;4961887;28;20065;-89
2022/12/30 06:56:34;;;;;;;0.90;0.90;;;;;;;-1.54;100.00;98837.72;4960427;28;20106;-90
2022/12/30 06:59:03;;;;;;;0.80;0.80;;;;;;;-1.57;100.00;98828.28;4979070;28;20113;-91
2022/12/30 07:01:31;;;;;;;0.90;0.90;;;;;;;-1.53;100.00;98834.06;4951187;28;20545;-91
2022/12/30 07:04:03;;;;;;;0.90;0.90;;;;;;;-1.48;100.00;98830.91;4953494;28;20712;-90
2022/12/30 07:06:31;;;;;;;0.88;0.88;;;;;;;-1.40;100.00;98836.97;4961526;28;20057;-91
2022/12/30 07:08:59;;;;;;;0.85;0.85;;;;;;;-1.47;100.00;98830.72;4963697;28;20074;-92
2022/12/30 07:11:31;;;;;;;0.88;0.88;;;;;;;-1.46;100.00;98842.97;4944852;28;20520;-92
2022/12/30 07:14:00;;;;;;;0.90;0.90;;;;;;;-1.47;100.00;98843.94;4932599;28;20113;-90
2022/12/30 07:16:27;;;;;;;0.80;0.80;;;;;;;-1.49;100.00;98845.13;4982173;28;20047;-92
2022/12/30 07:18:55;;;;;;;0.70;0.70;;;;;;;-1.50;100.00;98848.78;4945906;28;20073;-92
2022/12/30 07:21:22;;;;;;;0.90;0.90;;;;;;;-1.45;100.00;98854.38;4962415;28;20059;-91
2022/12/30 07:23:51;;;;;;;1.00;1.00;;;;;;;-1.49;100.00;98853.91;4967253;28;20042;-92
2022/12/30 07:26:20;;;;;;;0.93;0.93;;;;;;;-1.58;100.00;98839.84;4969679;28;20051;-91
2022/12/30 07:28:47;;;;;;;0.90;0.90;;;;;;;-1.43;100.00;98860.31;4950160;28;20050;-91
2022/12/30 07:31:44;;;;;;;0.90;0.90;;;;;;;-1.44;100.00;98863.94;4966659;28;20202;-92
2022/12/30 07:34:25;;;;;;;0.90;0.90;;;;;;;-1.47;100.00;98857.19;4963470;28;20053;-92
2022/12/30 07:36:55;;;;;;;1.02;1.02;;;;;;;-1.40;100.00;98867.91;4947768;28;20117;-92
2022/12/30 07:39:22;;;;;;;0.90;0.90;;;;;;;-1.40;100.00;98870.56;4982938;28;20502;-93
2022/12/30 07:41:50;;;;;;;0.63;0.63;;;;;;;-1.43;100.00;98857.69;4963160;28;20052;-92
2022/12/30 07:44:31;;;;;;;0.90;0.90;;;;;;;-1.46;100.00;98850.91;4965535;28;20138;-91
2022/12/30 07:46:58;;;;;;;1.00;1.00;;;;;;;-1.39;100.00;98851.88;4982584;28;20057;-92
2022/12/30 07:49:26;;;;;;;1.00;1.00;;;;;;;-1.34;100.00;98849.53;4965415;28;20061;-92
2022/12/30 07:51:53;;;;;;;0.88;0.88;;;;;;;-1.35;100.00;98839.09;4979912;28;20078;-92
2022/12/30 07:54:21;;;;;;;0.88;0.88;;;;;;;-1.35;100.00;98839.94;4981560;28;20518;-92
2022/12/30 07:56:49;;;;;;;1.00;1.00;;;;;;;-1.26;100.00;98848.69;4961717;28;20081;-90
2022/12/30 07:59:16;;;;;;;0.90;0.90;;;;;;;-1.20;100.00;98839.22;4962648;28;20066;-93
2022/12/30 08:01:45;;;;;;;0.80;0.80;;;;;;;-1.25;100.00;98842.38;4946220;28;20061;-93
2022/12/30 08:04:15;;;;;;;0.90;0.90;;;;;;;-1.21;100.00;98841.03;4964858;28;20055;-92
2022/12/30 08:07:06;;;;;;;0.80;0.80;;;;;;;-1.24;100.00;98841.41;4968503;28;20043;-93
2022/12/30 08:09:36;;;;;;;0.90;0.90;;;;;;;-1.22;100.00;98833.25;4965409;28;20054;-92
2022/12/30 08:12:04;;;;;;;1.00;1.00;;;;;;;-1.07;100.00;98847.41;4949693;28;20067;-93
2022/12/30 08:14:31;;;;;;;0.80;0.80;;;;;;;-1.11;100.00;98856.72;4956392;28;20055;-91
2022/12/30 08:16:58;;;;;;;0.90;0.90;;;;;;;-1.12;100.00;98853.22;4955339;28;20046;-91
2022/12/30 08:19:31;;;;;;;0.90;0.90;;;;;;;-1.10;100.00;98847.78;4973077;28;20078;-91
2022/12/30 08:21:58;;;;;;;0.98;0.98;;;;;;;-1.14;100.00;98847.31;4969872;28;20053;-91
2022/12/30 08:24:26;;;;;;;0.95;0.95;;;;;;;-1.19;100.00;98830.25;4945843;28;20054;-89
2022/12/30 08:26:53;;;;;;;0.90;0.90;;;;;;;-1.16;100.00;98851.13;4977903;28;20069;-91
2022/12/30 08:29:20;;;;;;;1.10;1.10;;;;;;;-1.15;100.00;98845.63;4961350;28;20042;-91
2022/12/30 08:31:49;;;;;;;0.82;0.82;;;;;;;-1.16;100.00;98836.06;4980668;28;20051;-90
2022/12/30 08:34:19;;;;;;;0.82;0.82;;;;;;;-1.11;100.00;98839.00;4961394;28;20046;-90
2022/12/30 08:36:46;;;;;;;0.90;0.90;;;;;;;-1.13;100.00;98834.88;4977823;28;20426;-92
2022/12/30 08:39:14;;;;;;;0.90;0.90;;;;;;;-1.12;100.00;98841.81;4962145;28;20058;-91
2022/12/30 08:41:43;;;;;;;0.70;0.70;;;;;;;-1.13;100.00;98840.19;4959891;28;20054;-90
2022/12/30 08:44:16;;;;;;;0.90;0.90;;;;;;;-1.07;100.00;98833.34;4977331;28;20042;-90
2022/12/30 08:46:44;;;;;;;1.02;1.02;;;;;;;-1.04;100.00;98838.28;4969650;28;20053;-91
2022/12/30 08:49:12;;;;;;;0.90;0.90;;;;;;;-1.03;100.00;98824.88;4965122;28;20050;-92
2022/12/30 08:52:10;;;;;;;0.90;0.90;;;;;;;-0.97;100.00;98836.59;4951788;28;20078;-91
2022/12/30 08:54:37;;;;;;;0.95;0.95;;;;;;;-0.96;100.00;98825.84;4951453;28;20050;-93
2022/12/30 08:57:07;;;;;;;0.80;0.80;;;;;;;-0.88;100.00;98828.44;4964663;28;20051;-91
2022/12/30 08:59:38;;;;;;;0.90;0.90;;;;;;;-0.80;100.00;98827.56;4983741;28;20082;-91
2022/12/30 09:02:19;;;;;;;0.73;0.73;;;;;;;-0.79;100.00;98828.38;4983048;28;20560;-91
2022/12/30 09:05:01;;;;;;;0.90;0.90;;;;;;;-0.80;100.00;98832.03;4966537;28;20097;-91
2022/12/30 09:07:29;;;;;;;0.90;0.90;;;;;;;-0.78;100.00;98827.41;4982168;28;20043;-92
2022/12/30 09:10:21;;;;;;;0.88;0.88;;;;;;;-0.77;100.00;98821.09;4985655;28;20051;-91
2022/12/30 09:12:48;;;;;;;0.90;0.90;;;;;;;-0.67;100.00;98809.25;4982244;28;20059;-92
2022/12/30 09:15:16;;;;;;;0.90;0.90;;;;;;;-0.67;100.00;98817.19;4965714;28;20043;-90
2022/12/30 09:17:43;;;;;;;0.82;0.82;;;;;;;-0.68;100.00;98822.69;4991559;28;20107;-91
2022/12/30 09:20:10;;;;;;;0.90;0.90;;;;;;;-0.62;99.99;98826.44;4967190;28;20516;-93
2022/12/30 09:22:40;;;;;;;1.00;1.00;;;;;;;-0.63;99.79;98809.72;4984762;28;20051;-91
2022/12/30 09:25:08;;;;;;;0.90;0.90;;;;;;;-0.68;99.28;98809.44;4982952;28;20084;-91
2022/12/30 09:27:34;;;;;;;0.98;0.98;;;;;;;-0.70;99.31;98811.44;4981796;28;20081;-91
2022/12/30 09:30:02;;;;;;;0.90;0.90;;;;;;;-0.79;99.38;98805.34;4966118;28;20113;-93
2022/12/30 09:32:29;;;;;;;0.90;0.90;;;;;;;-0.74;99.69;98807.47;4982883;28;20141;-92
2022/12/30 09:34:56;;;;;;;0.80;0.80;;;;;;;-0.69;99.79;98802.47;4985812;28;20059;-92
2022/12/30 09:37:34;;;;;;;0.90;0.90;;;;;;;-0.64;99.91;98807.25;4986188;28;20047;-92
2022/12/30 09:40:02;;;;;;;0.90;0.90;;;;;;;-0.67;99.94;98788.03;4986921;28;20085;-92
2022/12/30 09:45:29;;;;;;;0.85;0.85;;;;;;;-0.68;99.65;98782.94;4972912;28;20087;-92
2022/12/30 09:47:59;;;;;;;0.98;0.98;;;;;;;-0.71;99.51;98777.97;4968173;29;20162;-88
2022/12/30 09:51:01;;;;;;;0.90;0.90;;;;;;;-0.61;99.85;98785.66;4954450;29;20047;-90
2022/12/30 09:53:56;;;;;;;0.80;0.80;;;;;;;-0.58;99.95;98791.47;4971431;29;20051;-92
2022/12/30 09:56:29;;;;;;;0.90;0.90;;;;;;;-0.61;100.00;98770.59;4949266;29;20055;-88
2022/12/30 09:59:00;;;;;;;0.90;0.90;;;;;;;-0.61;99.71;98780.38;4968672;28;20051;-87
2022/12/30 10:01:52;;;;;;;0.93;0.93;;;;;;;-0.65;100.00;98779.91;4946821;29;20079;-91
2022/12/30 10:04:24;;;;;;;1.00;1.00;;;;;;;-0.53;99.73;98785.59;4929210;29;20050;-89
2022/12/30 10:07:02;;;;;;;0.93;0.93;;;;;;;-0.54;99.41;98776.00;4922150;29;20126;-94
2022/12/30 10:10:03;;;;;;;0.90;0.90;;;;;;;-0.39;99.62;98786.66;4959140;28;20050;-92
2022/12/30 10:13:18;;;;;;;0.93;0.93;;;;;;;-0.33;99.39;98784.13;4934301;29;20071;-89
2022/12/30 10:16:09;;;;;;;0.80;0.80;;;;;;;-0.25;99.02;98786.69;4921917;29;20123;-90
2022/12/30 10:19:23;;;;;;;0.90;0.90;;;;;;;-0.35;98.59;98780.81;4902155;29;20582;-90
2022/12/30 10:21:57;;;;;;;0.95;0.95;;;;;;;-0.39;98.81;98779.53;4933354;29;20087;-92
2022/12/30 10:24:28;;;;;;;1.00;1.00;;;;;;;-0.36;98.85;98791.59;4932265;29;20115;-92
2022/12/30 10:26:57;;;;;;;0.90;0.90;;;;;;;-0.35;98.70;98785.31;4934885;29;20078;-90
2022/12/30 10:29:31;;;;;;;0.90;0.90;;;;;;;-0.38;98.72;98790.94;4901730;29;20352;-90
2022/12/30 10:32:10;;;;;;;0.90;0.90;;;;;;;-0.41;98.96;98791.31;4928378;29;20047;-91
2022/12/30 10:34:37;;;;;;;1.00;1.00;;;;;;;-0.48;99.09;98789.38;4911154;29;20621;-89
2022/12/30 10:37:10;;;;;;;0.77;0.77;;;;;;;-0.46;99.50;98789.19;4945564;29;20082;-89
2022/12/30 10:39:55;;;;;;;0.80;0.80;;;;;;;-0.47;99.90;98769.81;4937567;29;20056;-91
2022/12/30 10:42:34;;;;;;;0.90;0.90;;;;;;;-0.44;100.00;98780.06;4932103;29;20157;-90
2022/12/30 10:45:34;;;;;;;0.90;0.90;;;;;;;-0.40;100.00;98767.28;4931680;29;20139;-89
2022/12/30 10:48:32;;;;;;;0.90;0.90;;;;;;;-0.33;100.00;98768.22;4913271;29;20477;-89
2022/12/30 10:51:00;;;;;;;1.00;1.00;;;;;;;-0.42;100.00;98757.84;4928426;29;20143;-87
2022/12/30 10:53:28;;;;;;;1.00;1.00;;;;;;;-0.28;100.00;98771.16;4928296;29;20103;-84
2022/12/30 10:56:01;;;;;;;0.80;0.80;;;;;;;-0.32;100.00;98776.97;4596249;28;10000220;-86
2022/12/30 10:58:31;;;;;;;0.80;0.80;;;;;;;-0.31;100.00;98766.19;4950180;28;20082;-85
2022/12/30 11:01:00;;;;;;;0.90;0.90;;;;;;;-0.35;100.00;98769.41;4956264;28;20631;-85
2022/12/30 11:03:30;;;;;;;0.80;0.80;;;;;;;-0.34;100.00;98773.69;4950248;28;20082;-87
2022/12/30 11:06:24;;;;;;;0.85;0.85;;;;;;;-0.28;100.00;98772.94;4627217;28;10000588;-87
2022/12/30 11:08:53;;;;;;;0.90;0.90;;;;;;;-0.36;100.00;98783.63;4965927;28;20470;-84
2022/12/30 11:14:42;;;;;;;0.90;0.90;;;;;;;-0.37;100.00;98784.66;4953712;28;20058;-89
2022/12/30 11:14:42;;;;;;;0.80;0.80;;;;;;;-0.60;100.00;98780.22;4963353;28;20062;-87
2022/12/30 11:17:16;;;;;;;0.88;0.88;;;;;;;-0.52;100.00;98780.13;4960198;28;20055;-88
2022/12/30 11:19:43;;;;;;;0.90;0.90;;;;;;;-0.48;100.00;98777.94;4956757;28;20055;-87
2022/12/30 11:22:10;;;;;;;0.80;0.80;;;;;;;-0.51;100.00;98779.13;4946873;28;20098;-88
2022/12/30 11:24:38;;;;;;;0.80;0.80;;;;;;;-0.46;100.00;98792.69;4949792;28;20154;-86
2022/12/30 11:27:05;;;;;;;0.82;0.82;;;;;;;-0.53;100.00;98781.16;4968780;28;20399;-87
2022/12/30 11:29:33;;;;;;;0.90;0.90;;;;;;;-0.55;100.00;98774.38;4942643;28;20506;-89
2022/12/30 11:32:11;;;;;;;1.00;1.00;;;;;;;-0.57;100.00;98774.53;4975952;28;20415;-88
2022/12/30 11:34:39;;;;;;;0.73;0.73;;;;;;;-0.54;100.00;98766.22;4956327;28;20051;-87
2022/12/30 11:37:30;;;;;;;0.90;0.90;;;;;;;-0.47;100.00;98771.66;4945007;28;20714;-87
2022/12/30 11:40:24;;;;;;;0.80;0.80;;;;;;;-0.53;100.00;98778.50;4946106;29;20146;-88
2022/12/30 11:43:15;;;;;;;0.90;0.90;;;;;;;-0.56;100.00;98784.13;4936321;28;20055;-85
2022/12/30 11:46:01;;;;;;;0.70;0.70;;;;;;;-0.61;100.00;98781.19;4946666;28;20101;-87
2022/12/30 11:48:34;;;;;;;0.73;0.73;;;;;;;-0.54;100.00;98787.44;4962569;28;20050;-88
2022/12/30 11:51:16;;;;;;;0.85;0.85;;;;;;;-0.52;100.00;98795.22;4956329;28;20051;-88
2022/12/30 11:53:43;;;;;;;0.90;0.90;;;;;;;-0.58;100.00;98777.34;4936860;28;20150;-87
2022/12/30 11:56:11;;;;;;;0.90;0.90;;;;;;;-0.56;100.00;98778.00;4962910;28;20552;-88
2022/12/30 11:58:39;;;;;;;0.80;0.80;;;;;;;-0.47;100.00;98785.72;4941813;29;20138;-88
2022/12/30 12:01:10;;;;;;;0.70;0.70;;;;;;;-0.47;100.00;98783.06;4953728;29;20587;-87
2022/12/30 12:03:57;;;;;;;0.80;0.80;;;;;;;-0.45;100.00;98780.25;4960451;28;20050;-87
2022/12/30 12:06:24;;;;;;;0.90;0.90;;;;;;;-0.53;100.00;98786.44;4955135;28;20463;-88
2022/12/30 12:09:07;;;;;;;0.90;0.90;;;;;;;-0.56;100.00;98784.13;4969892;28;20050;-88
2022/12/30 12:11:37;;;;;;;1.00;1.00;;;;;;;-0.59;100.00;98781.84;4943771;28;20145;-87
2022/12/30 12:14:19;;;;;;;0.82;0.82;;;;;;;-0.58;100.00;98787.97;4953764;28;20045;-89
2022/12/30 12:16:57;;;;;;;0.80;0.80;;;;;;;-0.60;100.00;98782.03;4972319;28;20058;-87
2022/12/30 12:19:47;;;;;;;0.90;0.90;;;;;;;-0.57;100.00;98787.78;4951411;28;20069;-87
2022/12/30 12:23:00;;;;;;;1.00;1.00;;;;;;;-0.56;100.00;98788.63;4960910;28;20069;-88
2022/12/30 12:25:33;;;;;;;0.80;0.80;;;;;;;-0.63;100.00;98791.16;4968081;28;20124;-87
2022/12/30 12:28:01;;;;;;;0.90;0.90;;;;;;;-0.66;100.00;98796.81;4963226;28;20105;-87
2022/12/30 12:30:53;;;;;;;0.80;0.80;;;;;;;-0.55;100.00;98803.53;4934901;28;20180;-86
2022/12/30 12:33:31;;;;;;;0.80;0.80;;;;;;;-0.60;100.00;98787.34;4938438;28;20047;-86
2022/12/30 12:36:34;;;;;;;0.90;0.90;;;;;;;-0.52;100.00;98795.22;4927805;29;20043;-86
2022/12/30 12:39:05;;;;;;;0.93;0.93;;;;;;;-0.50;100.00;98794.03;4935721;28;20089;-85
2022/12/30 12:41:43;;;;;;;0.90;0.90;;;;;;;-0.53;100.00;98794.41;4967835;28;20145;-87
2022/12/30 12:44:29;;;;;;;0.88;0.88;;;;;;;-0.51;100.00;98783.59;4921391;29;20058;-86
2022/12/30 12:47:09;;;;;;;0.90;0.90;;;;;;;-0.50;100.00;98778.13;4948595;29;20495;-87
2022/12/30 12:50:04;;;;;;;0.90;0.90;;;;;;;-0.49;100.00;98793.03;4961004;28;20145;-87
2022/12/30 12:52:59;;;;;;;0.88;0.88;;;;;;;-0.48;100.00;98792.03;4938791;29;20114;-86